sensor_id;sensor_type;location;lat;lon;timestamp;P1;durP1;ratioP1;P2;durP2;ratioP2
16892;SDS011;8563;52.242;9.098;2023-02-15T00:00:44;9.90;;;8.90;;
16892;SDS011;8563;52.242;9.098;2023-02-15T00:03:17;10.13;;;8.57;;
16892;SDS011;8563;52.242;9.098;2023-02-15T00:05:50;10.87;;;8.37;;
16892;SDS011;8563;52.242;9.098;2023-02-15T00:08:23;11.87;;;9.37;;
16892;SDS011;8563;52.242;9.098;2023-02-15T00:11:03;13.10;;;9.13;;
16892;SDS011;8563;52.242;9.098;2023-02-15T00:13:35;10.23;;;8.70;;
16892;SDS011;8563;52.242;9.098;2023-02-15T00:16:09;10.97;;;9.13;;
16892;SDS011;8563;52.242;9.098;2023-02-15T00:18:42;12.57;;;9.03;;
16892;SDS011;8563;52.242;9.098;2023-02-15T00:21:16;10.70;;;8.83;;
16892;SDS011;8563;52.242;9.098;2023-02-15T00:23:48;12.03;;;8.77;;
16892;SDS011;8563;52.242;9.098;2023-02-15T00:26:20;10.43;;;8.77;;
16892;SDS011;8563;52.242;9.098;2023-02-15T00:28:53;9.87;;;8.53;;
16892;SDS011;8563;52.242;9.098;2023-02-15T00:31:26;11.57;;;9.33;;
16892;SDS011;8563;52.242;9.098;2023-02-15T00:34:02;9.87;;;8.50;;
16892;SDS011;8563;52.242;9.098;2023-02-15T00:36:36;12.63;;;9.23;;
16892;SDS011;8563;52.242;9.098;2023-02-15T00:39:09;11.70;;;9.40;;
16892;SDS011;8563;52.242;9.098;2023-02-15T00:41:41;12.43;;;8.87;;
16892;SDS011;8563;52.242;9.098;2023-02-15T00:44:14;12.23;;;10.03;;
16892;SDS011;8563;52.242;9.098;2023-02-15T00:46:46;11.57;;;9.37;;
16892;SDS011;8563;52.242;9.098;2023-02-15T00:49:19;10.97;;;9.27;;
16892;SDS011;8563;52.242;9.098;2023-02-15T00:51:53;10.10;;;9.00;;
16892;SDS011;8563;52.242;9.098;2023-02-15T00:54:25;12.27;;;9.57;;
16892;SDS011;8563;52.242;9.098;2023-02-15T00:56:58;11.80;;;9.90;;
16892;SDS011;8563;52.242;9.098;2023-02-15T00:59:30;12.57;;;10.23;;
16892;SDS011;8563;52.242;9.098;2023-02-15T01:02:02;12.87;;;10.63;;
16892;SDS011;8563;52.242;9.098;2023-02-15T01:04:35;13.57;;;10.40;;
16892;SDS011;8563;52.242;9.098;2023-02-15T01:07:08;12.10;;;10.43;;
16892;SDS011;8563;52.242;9.098;2023-02-15T01:09:41;11.50;;;10.03;;
16892;SDS011;8563;52.242;9.098;2023-02-15T01:12:13;11.90;;;10.17;;
16892;SDS011;8563;52.242;9.098;2023-02-15T01:14:46;11.77;;;9.87;;
16892;SDS011;8563;52.242;9.098;2023-02-15T01:17:18;11.67;;;9.50;;
16892;SDS011;8563;52.242;9.098;2023-02-15T01:19:50;11.10;;;9.87;;
16892;SDS011;8563;52.242;9.098;2023-02-15T01:22:24;12.10;;;10.27;;
16892;SDS011;8563;52.242;9.098;2023-02-15T01:24:58;12.83;;;10.60;;
16892;SDS011;8563;52.242;9.098;2023-02-15T01:27:33;12.70;;;10.27;;
16892;SDS011;8563;52.242;9.098;2023-02-15T01:30:06;13.43;;;10.07;;
16892;SDS011;8563;52.242;9.098;2023-02-15T01:32:39;11.73;;;9.33;;
16892;SDS011;8563;52.242;9.098;2023-02-15T01:35:12;11.73;;;9.97;;
16892;SDS011;8563;52.242;9.098;2023-02-15T01:37:45;13.17;;;9.53;;
16892;SDS011;8563;52.242;9.098;2023-02-15T01:40:18;11.40;;;9.57;;
16892;SDS011;8563;52.242;9.098;2023-02-15T01:42:51;11.13;;;8.97;;
16892;SDS011;8563;52.242;9.098;2023-02-15T01:45:25;11.03;;;9.27;;
16892;SDS011;8563;52.242;9.098;2023-02-15T01:47:58;10.93;;;9.37;;
16892;SDS011;8563;52.242;9.098;2023-02-15T01:50:33;13.87;;;9.77;;
16892;SDS011;8563;52.242;9.098;2023-02-15T01:53:08;9.87;;;8.13;;
16892;SDS011;8563;52.242;9.098;2023-02-15T01:55:44;12.67;;;10.00;;
16892;SDS011;8563;52.242;9.098;2023-02-15T01:58:19;10.77;;;8.97;;
16892;SDS011;8563;52.242;9.098;2023-02-15T02:00:52;9.73;;;8.70;;
16892;SDS011;8563;52.242;9.098;2023-02-15T02:03:28;11.70;;;9.03;;
16892;SDS011;8563;52.242;9.098;2023-02-15T02:06:03;12.70;;;9.30;;
16892;SDS011;8563;52.242;9.098;2023-02-15T02:08:37;14.00;;;9.93;;
16892;SDS011;8563;52.242;9.098;2023-02-15T02:11:10;11.93;;;9.60;;
16892;SDS011;8563;52.242;9.098;2023-02-15T02:13:43;12.60;;;10.37;;
16892;SDS011;8563;52.242;9.098;2023-02-15T02:16:17;12.03;;;9.80;;
16892;SDS011;8563;52.242;9.098;2023-02-15T02:18:58;12.93;;;10.87;;
16892;SDS011;8563;52.242;9.098;2023-02-15T02:21:49;12.30;;;10.07;;
16892;SDS011;8563;52.242;9.098;2023-02-15T02:27:26;12.83;;;11.07;;
16892;SDS011;8563;52.242;9.098;2023-02-15T02:35:42;13.30;;;10.17;;
16892;SDS011;8563;52.242;9.098;2023-02-15T02:38:18;13.83;;;11.40;;
16892;SDS011;8563;52.242;9.098;2023-02-15T02:40:57;15.27;;;10.97;;
16892;SDS011;8563;52.242;9.098;2023-02-15T02:43:33;14.67;;;11.87;;
16892;SDS011;8563;52.242;9.098;2023-02-15T02:46:10;14.90;;;11.00;;
16892;SDS011;8563;52.242;9.098;2023-02-15T02:48:44;13.90;;;11.60;;
16892;SDS011;8563;52.242;9.098;2023-02-15T02:51:19;13.20;;;11.23;;
16892;SDS011;8563;52.242;9.098;2023-02-15T02:53:53;15.00;;;11.63;;
16892;SDS011;8563;52.242;9.098;2023-02-15T02:56:27;14.80;;;11.57;;
16892;SDS011;8563;52.242;9.098;2023-02-15T02:59:02;14.40;;;11.20;;
16892;SDS011;8563;52.242;9.098;2023-02-15T03:01:38;14.70;;;11.30;;
16892;SDS011;8563;52.242;9.098;2023-02-15T03:04:13;14.13;;;11.30;;
16892;SDS011;8563;52.242;9.098;2023-02-15T03:06:49;15.10;;;12.07;;
16892;SDS011;8563;52.242;9.098;2023-02-15T03:09:23;15.53;;;12.37;;
16892;SDS011;8563;52.242;9.098;2023-02-15T03:12:13;14.93;;;12.20;;
16892;SDS011;8563;52.242;9.098;2023-02-15T03:14:49;15.53;;;12.30;;
16892;SDS011;8563;52.242;9.098;2023-02-15T03:17:23;17.67;;;12.57;;
16892;SDS011;8563;52.242;9.098;2023-02-15T03:19:59;13.87;;;11.80;;
16892;SDS011;8563;52.242;9.098;2023-02-15T03:22:38;16.63;;;12.83;;
16892;SDS011;8563;52.242;9.098;2023-02-15T03:25:16;15.20;;;12.43;;
16892;SDS011;8563;52.242;9.098;2023-02-15T03:27:51;16.97;;;13.43;;
16892;SDS011;8563;52.242;9.098;2023-02-15T03:30:26;16.17;;;12.50;;
16892;SDS011;8563;52.242;9.098;2023-02-15T03:33:00;15.87;;;13.03;;
16892;SDS011;8563;52.242;9.098;2023-02-15T03:35:36;18.37;;;13.87;;
16892;SDS011;8563;52.242;9.098;2023-02-15T03:38:10;17.17;;;13.40;;
16892;SDS011;8563;52.242;9.098;2023-02-15T03:40:44;16.33;;;13.13;;
16892;SDS011;8563;52.242;9.098;2023-02-15T03:43:37;17.17;;;13.33;;
16892;SDS011;8563;52.242;9.098;2023-02-15T03:46:12;16.70;;;12.60;;
16892;SDS011;8563;52.242;9.098;2023-02-15T03:48:46;16.37;;;13.00;;
16892;SDS011;8563;52.242;9.098;2023-02-15T03:51:19;15.93;;;12.53;;
16892;SDS011;8563;52.242;9.098;2023-02-15T03:54:08;15.60;;;12.73;;
16892;SDS011;8563;52.242;9.098;2023-02-15T03:56:41;16.17;;;12.80;;
16892;SDS011;8563;52.242;9.098;2023-02-15T03:59:35;16.60;;;12.90;;
16892;SDS011;8563;52.242;9.098;2023-02-15T04:02:25;15.60;;;12.30;;
16892;SDS011;8563;52.242;9.098;2023-02-15T04:05:02;15.97;;;12.63;;
16892;SDS011;8563;52.242;9.098;2023-02-15T04:07:34;15.27;;;12.23;;
16892;SDS011;8563;52.242;9.098;2023-02-15T04:10:09;15.80;;;12.97;;
16892;SDS011;8563;52.242;9.098;2023-02-15T04:12:59;16.70;;;13.30;;
16892;SDS011;8563;52.242;9.098;2023-02-15T04:15:32;15.80;;;13.17;;
16892;SDS011;8563;52.242;9.098;2023-02-15T04:18:22;17.60;;;13.47;;
16892;SDS011;8563;52.242;9.098;2023-02-15T04:21:13;16.63;;;13.40;;
16892;SDS011;8563;52.242;9.098;2023-02-15T04:24:03;14.90;;;12.70;;
16892;SDS011;8563;52.242;9.098;2023-02-15T04:26:55;17.13;;;13.87;;
16892;SDS011;8563;52.242;9.098;2023-02-15T04:29:27;17.93;;;14.70;;
16892;SDS011;8563;52.242;9.098;2023-02-15T04:32:00;17.80;;;13.83;;
16892;SDS011;8563;52.242;9.098;2023-02-15T04:34:33;16.67;;;13.93;;
16892;SDS011;8563;52.242;9.098;2023-02-15T04:37:05;18.33;;;13.47;;
16892;SDS011;8563;52.242;9.098;2023-02-15T04:39:37;19.37;;;14.80;;
16892;SDS011;8563;52.242;9.098;2023-02-15T04:42:11;18.50;;;14.23;;
16892;SDS011;8563;52.242;9.098;2023-02-15T04:44:43;17.00;;;14.70;;
16892;SDS011;8563;52.242;9.098;2023-02-15T04:47:16;20.27;;;14.33;;
16892;SDS011;8563;52.242;9.098;2023-02-15T04:49:48;16.80;;;14.33;;
16892;SDS011;8563;52.242;9.098;2023-02-15T04:52:21;18.17;;;14.43;;
16892;SDS011;8563;52.242;9.098;2023-02-15T04:54:53;17.17;;;14.37;;
16892;SDS011;8563;52.242;9.098;2023-02-15T04:57:27;18.27;;;14.77;;
16892;SDS011;8563;52.242;9.098;2023-02-15T04:59:59;20.00;;;15.33;;
16892;SDS011;8563;52.242;9.098;2023-02-15T05:02:32;17.60;;;14.93;;
16892;SDS011;8563;52.242;9.098;2023-02-15T05:05:04;19.13;;;14.60;;
16892;SDS011;8563;52.242;9.098;2023-02-15T05:07:37;18.30;;;14.67;;
16892;SDS011;8563;52.242;9.098;2023-02-15T05:10:09;21.07;;;15.50;;
16892;SDS011;8563;52.242;9.098;2023-02-15T05:12:43;19.03;;;15.40;;
16892;SDS011;8563;52.242;9.098;2023-02-15T05:15:16;19.07;;;15.00;;
16892;SDS011;8563;52.242;9.098;2023-02-15T05:17:48;19.20;;;15.37;;
16892;SDS011;8563;52.242;9.098;2023-02-15T05:20:21;16.33;;;14.00;;
16892;SDS011;8563;52.242;9.098;2023-02-15T05:22:53;19.20;;;15.50;;
16892;SDS011;8563;52.242;9.098;2023-02-15T05:25:26;18.07;;;14.53;;
16892;SDS011;8563;52.242;9.098;2023-02-15T05:28:17;20.40;;;15.17;;
16892;SDS011;8563;52.242;9.098;2023-02-15T05:30:58;16.93;;;14.63;;
16892;SDS011;8563;52.242;9.098;2023-02-15T05:33:32;19.67;;;15.17;;
16892;SDS011;8563;52.242;9.098;2023-02-15T05:36:05;21.07;;;15.23;;
16892;SDS011;8563;52.242;9.098;2023-02-15T05:38:37;18.67;;;15.07;;
16892;SDS011;8563;52.242;9.098;2023-02-15T05:41:10;17.33;;;13.87;;
16892;SDS011;8563;52.242;9.098;2023-02-15T05:43:44;18.20;;;15.27;;
16892;SDS011;8563;52.242;9.098;2023-02-15T05:46:17;20.20;;;14.60;;
16892;SDS011;8563;52.242;9.098;2023-02-15T05:48:49;18.23;;;13.87;;
16892;SDS011;8563;52.242;9.098;2023-02-15T05:51:21;19.33;;;14.47;;
16892;SDS011;8563;52.242;9.098;2023-02-15T05:53:54;19.07;;;14.97;;
16892;SDS011;8563;52.242;9.098;2023-02-15T05:56:26;18.73;;;15.00;;
16892;SDS011;8563;52.242;9.098;2023-02-15T05:59:00;16.93;;;13.77;;
16892;SDS011;8563;52.242;9.098;2023-02-15T06:01:32;17.37;;;14.50;;
16892;SDS011;8563;52.242;9.098;2023-02-15T06:04:05;19.27;;;14.40;;
16892;SDS011;8563;52.242;9.098;2023-02-15T06:06:37;18.20;;;14.47;;
16892;SDS011;8563;52.242;9.098;2023-02-15T06:09:10;16.10;;;12.80;;
16892;SDS011;8563;52.242;9.098;2023-02-15T06:11:42;17.70;;;14.20;;
16892;SDS011;8563;52.242;9.098;2023-02-15T06:14:16;16.93;;;13.40;;
16892;SDS011;8563;52.242;9.098;2023-02-15T06:16:49;15.77;;;13.50;;
16892;SDS011;8563;52.242;9.098;2023-02-15T06:19:21;17.00;;;13.63;;
16892;SDS011;8563;52.242;9.098;2023-02-15T06:21:54;17.23;;;14.13;;
16892;SDS011;8563;52.242;9.098;2023-02-15T06:24:26;18.67;;;14.37;;
16892;SDS011;8563;52.242;9.098;2023-02-15T06:26:58;16.30;;;13.93;;
16892;SDS011;8563;52.242;9.098;2023-02-15T06:29:32;19.00;;;14.57;;
16892;SDS011;8563;52.242;9.098;2023-02-15T06:32:05;18.63;;;14.80;;
16892;SDS011;8563;52.242;9.098;2023-02-15T06:34:37;17.30;;;14.03;;
16892;SDS011;8563;52.242;9.098;2023-02-15T06:37:10;18.67;;;14.57;;
16892;SDS011;8563;52.242;9.098;2023-02-15T06:39:42;18.30;;;14.10;;
16892;SDS011;8563;52.242;9.098;2023-02-15T06:42:15;17.27;;;14.17;;
16892;SDS011;8563;52.242;9.098;2023-02-15T06:44:49;18.67;;;15.53;;
16892;SDS011;8563;52.242;9.098;2023-02-15T06:47:22;18.93;;;14.60;;
16892;SDS011;8563;52.242;9.098;2023-02-15T06:49:54;19.10;;;15.13;;
16892;SDS011;8563;52.242;9.098;2023-02-15T06:52:27;20.27;;;16.10;;
16892;SDS011;8563;52.242;9.098;2023-02-15T06:55:00;18.23;;;15.17;;
16892;SDS011;8563;52.242;9.098;2023-02-15T06:57:32;17.60;;;14.50;;
16892;SDS011;8563;52.242;9.098;2023-02-15T07:00:07;19.43;;;15.17;;
16892;SDS011;8563;52.242;9.098;2023-02-15T07:02:40;18.73;;;14.43;;
16892;SDS011;8563;52.242;9.098;2023-02-15T07:05:12;18.17;;;15.03;;
16892;SDS011;8563;52.242;9.098;2023-02-15T07:07:44;19.97;;;14.90;;
16892;SDS011;8563;52.242;9.098;2023-02-15T07:10:17;17.77;;;14.27;;
16892;SDS011;8563;52.242;9.098;2023-02-15T07:12:49;16.10;;;13.57;;
16892;SDS011;8563;52.242;9.098;2023-02-15T07:15:22;15.67;;;13.20;;
16892;SDS011;8563;52.242;9.098;2023-02-15T07:17:56;15.60;;;13.10;;
16892;SDS011;8563;52.242;9.098;2023-02-15T07:20:29;17.67;;;13.93;;
16892;SDS011;8563;52.242;9.098;2023-02-15T07:23:04;15.70;;;12.97;;
16892;SDS011;8563;52.242;9.098;2023-02-15T07:25:36;15.07;;;12.70;;
16892;SDS011;8563;52.242;9.098;2023-02-15T07:28:09;16.90;;;13.43;;
16892;SDS011;8563;52.242;9.098;2023-02-15T07:30:43;17.03;;;13.90;;
16892;SDS011;8563;52.242;9.098;2023-02-15T07:33:15;14.27;;;12.20;;
16892;SDS011;8563;52.242;9.098;2023-02-15T07:36:00;15.93;;;13.10;;
16892;SDS011;8563;52.242;9.098;2023-02-15T07:38:33;17.60;;;13.80;;
16892;SDS011;8563;52.242;9.098;2023-02-15T07:41:07;16.27;;;12.07;;
16892;SDS011;8563;52.242;9.098;2023-02-15T07:43:40;15.93;;;12.60;;
16892;SDS011;8563;52.242;9.098;2023-02-15T07:46:15;14.93;;;11.30;;
16892;SDS011;8563;52.242;9.098;2023-02-15T07:48:48;14.03;;;12.10;;
16892;SDS011;8563;52.242;9.098;2023-02-15T07:51:21;14.53;;;12.30;;
16892;SDS011;8563;52.242;9.098;2023-02-15T07:53:53;13.20;;;11.37;;
16892;SDS011;8563;52.242;9.098;2023-02-15T07:56:26;15.20;;;11.20;;
16892;SDS011;8563;52.242;9.098;2023-02-15T07:58:58;12.27;;;10.60;;
16892;SDS011;8563;52.242;9.098;2023-02-15T08:01:35;14.43;;;11.67;;
16892;SDS011;8563;52.242;9.098;2023-02-15T08:04:07;14.17;;;11.70;;
16892;SDS011;8563;52.242;9.098;2023-02-15T08:06:41;12.83;;;11.23;;
16892;SDS011;8563;52.242;9.098;2023-02-15T08:09:13;14.63;;;11.73;;
16892;SDS011;8563;52.242;9.098;2023-02-15T08:11:46;12.17;;;10.73;;
16892;SDS011;8563;52.242;9.098;2023-02-15T08:14:19;13.93;;;11.60;;
16892;SDS011;8563;52.242;9.098;2023-02-15T08:16:54;13.83;;;11.83;;
16892;SDS011;8563;52.242;9.098;2023-02-15T08:19:28;13.37;;;11.43;;
16892;SDS011;8563;52.242;9.098;2023-02-15T08:22:02;11.83;;;10.57;;
16892;SDS011;8563;52.242;9.098;2023-02-15T08:24:35;12.50;;;10.93;;
16892;SDS011;8563;52.242;9.098;2023-02-15T08:27:09;14.13;;;11.33;;
16892;SDS011;8563;52.242;9.098;2023-02-15T08:29:41;12.50;;;10.73;;
16892;SDS011;8563;52.242;9.098;2023-02-15T08:32:15;13.13;;;11.17;;
16892;SDS011;8563;52.242;9.098;2023-02-15T08:34:48;12.10;;;10.47;;
16892;SDS011;8563;52.242;9.098;2023-02-15T08:37:20;12.90;;;11.20;;
16892;SDS011;8563;52.242;9.098;2023-02-15T08:39:52;13.67;;;11.60;;
16892;SDS011;8563;52.242;9.098;2023-02-15T08:42:25;12.47;;;10.87;;
16892;SDS011;8563;52.242;9.098;2023-02-15T08:44:57;12.80;;;10.87;;
16892;SDS011;8563;52.242;9.098;2023-02-15T08:47:31;14.40;;;12.23;;
16892;SDS011;8563;52.242;9.098;2023-02-15T08:50:04;13.57;;;11.87;;
16892;SDS011;8563;52.242;9.098;2023-02-15T08:52:36;13.97;;;11.60;;
16892;SDS011;8563;52.242;9.098;2023-02-15T08:55:08;12.30;;;10.50;;
16892;SDS011;8563;52.242;9.098;2023-02-15T08:57:41;13.23;;;10.83;;
16892;SDS011;8563;52.242;9.098;2023-02-15T09:00:16;12.03;;;10.67;;
16892;SDS011;8563;52.242;9.098;2023-02-15T09:02:49;12.27;;;10.97;;
16892;SDS011;8563;52.242;9.098;2023-02-15T09:05:22;13.50;;;10.67;;
16892;SDS011;8563;52.242;9.098;2023-02-15T09:07:55;12.27;;;10.70;;
16892;SDS011;8563;52.242;9.098;2023-02-15T09:10:27;12.20;;;10.53;;
16892;SDS011;8563;52.242;9.098;2023-02-15T09:12:59;12.80;;;11.10;;
16892;SDS011;8563;52.242;9.098;2023-02-15T09:15:32;12.47;;;10.60;;
16892;SDS011;8563;52.242;9.098;2023-02-15T09:18:06;14.30;;;12.80;;
16892;SDS011;8563;52.242;9.098;2023-02-15T09:20:38;12.47;;;11.17;;
16892;SDS011;8563;52.242;9.098;2023-02-15T09:23:10;12.23;;;10.40;;
16892;SDS011;8563;52.242;9.098;2023-02-15T09:25:44;11.93;;;10.63;;
16892;SDS011;8563;52.242;9.098;2023-02-15T09:28:16;12.67;;;10.93;;
16892;SDS011;8563;52.242;9.098;2023-02-15T09:30:49;14.53;;;11.97;;
16892;SDS011;8563;52.242;9.098;2023-02-15T09:33:24;11.93;;;10.33;;
16892;SDS011;8563;52.242;9.098;2023-02-15T09:35:56;12.93;;;10.63;;
16892;SDS011;8563;52.242;9.098;2023-02-15T09:38:29;12.73;;;11.30;;
16892;SDS011;8563;52.242;9.098;2023-02-15T09:41:06;11.83;;;9.97;;
16892;SDS011;8563;52.242;9.098;2023-02-15T09:43:44;12.27;;;10.30;;
16892;SDS011;8563;52.242;9.098;2023-02-15T09:46:22;12.60;;;10.33;;
16892;SDS011;8563;52.242;9.098;2023-02-15T09:49:02;12.13;;;10.00;;
16892;SDS011;8563;52.242;9.098;2023-02-15T09:54:37;11.00;;;9.53;;
16892;SDS011;8563;52.242;9.098;2023-02-15T09:57:14;11.87;;;9.37;;
16892;SDS011;8563;52.242;9.098;2023-02-15T09:59:50;12.20;;;9.90;;
16892;SDS011;8563;52.242;9.098;2023-02-15T10:02:30;10.37;;;8.73;;
16892;SDS011;8563;52.242;9.098;2023-02-15T10:05:11;11.80;;;9.00;;
16892;SDS011;8563;52.242;9.098;2023-02-15T10:08:01;10.17;;;8.83;;
16892;SDS011;8563;52.242;9.098;2023-02-15T10:10:39;11.40;;;9.53;;
16892;SDS011;8563;52.242;9.098;2023-02-15T10:13:18;11.30;;;9.67;;
16892;SDS011;8563;52.242;9.098;2023-02-15T10:15:59;10.70;;;9.13;;
16892;SDS011;8563;52.242;9.098;2023-02-15T10:18:40;11.30;;;9.57;;
16892;SDS011;8563;52.242;9.098;2023-02-15T10:21:19;9.77;;;8.33;;
16892;SDS011;8563;52.242;9.098;2023-02-15T10:24:08;11.23;;;9.20;;
16892;SDS011;8563;52.242;9.098;2023-02-15T10:26:45;10.83;;;9.17;;
16892;SDS011;8563;52.242;9.098;2023-02-15T10:29:21;13.43;;;11.70;;
16892;SDS011;8563;52.242;9.098;2023-02-15T10:31:59;11.87;;;9.43;;
16892;SDS011;8563;52.242;9.098;2023-02-15T10:34:37;10.50;;;8.93;;
16892;SDS011;8563;52.242;9.098;2023-02-15T10:37:16;11.23;;;9.30;;
16892;SDS011;8563;52.242;9.098;2023-02-15T10:39:52;10.03;;;8.63;;
16892;SDS011;8563;52.242;9.098;2023-02-15T10:42:30;11.10;;;9.70;;
16892;SDS011;8563;52.242;9.098;2023-02-15T10:45:11;11.53;;;9.73;;
16892;SDS011;8563;52.242;9.098;2023-02-15T10:47:49;10.83;;;9.17;;
16892;SDS011;8563;52.242;9.098;2023-02-15T10:50:36;10.50;;;9.33;;
16892;SDS011;8563;52.242;9.098;2023-02-15T10:56:05;10.53;;;9.33;;
16892;SDS011;8563;52.242;9.098;2023-02-15T10:58:44;10.50;;;9.40;;
16892;SDS011;8563;52.242;9.098;2023-02-15T11:01:18;10.10;;;8.87;;
16892;SDS011;8563;52.242;9.098;2023-02-15T11:03:59;11.43;;;9.60;;
16892;SDS011;8563;52.242;9.098;2023-02-15T11:06:35;10.63;;;9.53;;
16892;SDS011;8563;52.242;9.098;2023-02-15T11:09:10;11.67;;;9.43;;
16892;SDS011;8563;52.242;9.098;2023-02-15T11:11:48;11.20;;;9.87;;
16892;SDS011;8563;52.242;9.098;2023-02-15T11:14:23;10.40;;;8.77;;
16892;SDS011;8563;52.242;9.098;2023-02-15T11:16:57;10.80;;;9.30;;
16892;SDS011;8563;52.242;9.098;2023-02-15T11:19:31;10.47;;;8.83;;
16892;SDS011;8563;52.242;9.098;2023-02-15T11:22:06;10.70;;;9.50;;
16892;SDS011;8563;52.242;9.098;2023-02-15T11:24:42;10.50;;;9.20;;
16892;SDS011;8563;52.242;9.098;2023-02-15T11:27:18;11.43;;;9.43;;
16892;SDS011;8563;52.242;9.098;2023-02-15T11:29:52;11.50;;;9.43;;
16892;SDS011;8563;52.242;9.098;2023-02-15T11:32:27;11.53;;;9.20;;
16892;SDS011;8563;52.242;9.098;2023-02-15T11:35:01;11.63;;;10.43;;
16892;SDS011;8563;52.242;9.098;2023-02-15T11:37:37;10.70;;;9.60;;
16892;SDS011;8563;52.242;9.098;2023-02-15T11:40:15;10.90;;;9.77;;
16892;SDS011;8563;52.242;9.098;2023-02-15T11:42:51;10.70;;;9.60;;
16892;SDS011;8563;52.242;9.098;2023-02-15T11:45:26;11.77;;;9.27;;
16892;SDS011;8563;52.242;9.098;2023-02-15T11:47:59;10.47;;;9.30;;
16892;SDS011;8563;52.242;9.098;2023-02-15T11:50:32;11.37;;;9.20;;
16892;SDS011;8563;52.242;9.098;2023-02-15T11:53:06;11.47;;;9.90;;
16892;SDS011;8563;52.242;9.098;2023-02-15T11:55:39;10.87;;;9.67;;
16892;SDS011;8563;52.242;9.098;2023-02-15T11:58:16;10.40;;;8.30;;
16892;SDS011;8563;52.242;9.098;2023-02-15T12:00:54;10.33;;;8.70;;
16892;SDS011;8563;52.242;9.098;2023-02-15T12:03:39;10.23;;;8.50;;
16892;SDS011;8563;52.242;9.098;2023-02-15T12:06:16;11.73;;;9.23;;
16892;SDS011;8563;52.242;9.098;2023-02-15T12:08:55;9.40;;;8.27;;
16892;SDS011;8563;52.242;9.098;2023-02-15T12:11:31;9.97;;;8.73;;
16892;SDS011;8563;52.242;9.098;2023-02-15T12:14:07;10.60;;;9.17;;
16892;SDS011;8563;52.242;9.098;2023-02-15T12:16:41;10.63;;;8.90;;
16892;SDS011;8563;52.242;9.098;2023-02-15T12:19:21;9.93;;;8.67;;
16892;SDS011;8563;52.242;9.098;2023-02-15T12:21:56;10.33;;;8.83;;
16892;SDS011;8563;52.242;9.098;2023-02-15T12:24:29;9.53;;;8.37;;
16892;SDS011;8563;52.242;9.098;2023-02-15T12:27:03;10.17;;;9.07;;
16892;SDS011;8563;52.242;9.098;2023-02-15T12:29:41;10.00;;;8.90;;
16892;SDS011;8563;52.242;9.098;2023-02-15T12:32:16;9.90;;;8.63;;
16892;SDS011;8563;52.242;9.098;2023-02-15T12:34:50;11.10;;;8.93;;
16892;SDS011;8563;52.242;9.098;2023-02-15T12:37:23;10.60;;;9.13;;
16892;SDS011;8563;52.242;9.098;2023-02-15T12:39:58;11.97;;;9.43;;
16892;SDS011;8563;52.242;9.098;2023-02-15T12:42:40;10.83;;;8.80;;
16892;SDS011;8563;52.242;9.098;2023-02-15T12:45:22;9.37;;;8.37;;
16892;SDS011;8563;52.242;9.098;2023-02-15T12:50:43;10.00;;;8.90;;
16892;SDS011;8563;52.242;9.098;2023-02-15T12:53:17;10.57;;;9.17;;
16892;SDS011;8563;52.242;9.098;2023-02-15T12:55:51;11.57;;;9.07;;
16892;SDS011;8563;52.242;9.098;2023-02-15T12:58:24;10.57;;;9.47;;
16892;SDS011;8563;52.242;9.098;2023-02-15T13:01:09;10.43;;;9.00;;
16892;SDS011;8563;52.242;9.098;2023-02-15T13:03:58;11.13;;;8.73;;
16892;SDS011;8563;52.242;9.098;2023-02-15T13:06:31;17.93;;;15.83;;
16892;SDS011;8563;52.242;9.098;2023-02-15T13:09:05;10.73;;;9.23;;
16892;SDS011;8563;52.242;9.098;2023-02-15T13:11:38;13.43;;;11.07;;
16892;SDS011;8563;52.242;9.098;2023-02-15T13:14:16;12.30;;;9.00;;
16892;SDS011;8563;52.242;9.098;2023-02-15T13:16:50;13.87;;;11.57;;
16892;SDS011;8563;52.242;9.098;2023-02-15T13:19:26;10.40;;;9.00;;
16892;SDS011;8563;52.242;9.098;2023-02-15T13:22:02;10.27;;;9.00;;
16892;SDS011;8563;52.242;9.098;2023-02-15T13:24:35;10.60;;;8.87;;
16892;SDS011;8563;52.242;9.098;2023-02-15T13:27:10;16.10;;;14.33;;
16892;SDS011;8563;52.242;9.098;2023-02-15T13:29:46;11.90;;;9.23;;
16892;SDS011;8563;52.242;9.098;2023-02-15T13:32:27;11.47;;;9.97;;
16892;SDS011;8563;52.242;9.098;2023-02-15T13:35:00;12.67;;;10.37;;
16892;SDS011;8563;52.242;9.098;2023-02-15T13:37:41;11.30;;;8.90;;
16892;SDS011;8563;52.242;9.098;2023-02-15T13:40:18;11.90;;;9.10;;
16892;SDS011;8563;52.242;9.098;2023-02-15T13:42:53;10.20;;;8.80;;
16892;SDS011;8563;52.242;9.098;2023-02-15T13:45:30;12.20;;;9.80;;
16892;SDS011;8563;52.242;9.098;2023-02-15T13:48:08;10.53;;;8.80;;
16892;SDS011;8563;52.242;9.098;2023-02-15T13:50:56;10.63;;;9.00;;
16892;SDS011;8563;52.242;9.098;2023-02-15T13:56:33;10.63;;;9.17;;
16892;SDS011;8563;52.242;9.098;2023-02-15T14:02:08;13.40;;;9.33;;
16892;SDS011;8563;52.242;9.098;2023-02-15T14:04:52;18.30;;;14.37;;
16892;SDS011;8563;52.242;9.098;2023-02-15T14:15:55;10.57;;;8.70;;
16892;SDS011;8563;52.242;9.098;2023-02-15T14:18:35;10.83;;;8.67;;
16892;SDS011;8563;52.242;9.098;2023-02-15T14:21:14;10.93;;;9.53;;
16892;SDS011;8563;52.242;9.098;2023-02-15T14:23:52;9.77;;;8.60;;
16892;SDS011;8563;52.242;9.098;2023-02-15T14:26:29;11.23;;;8.97;;
16892;SDS011;8563;52.242;9.098;2023-02-15T14:29:10;11.67;;;9.43;;
16892;SDS011;8563;52.242;9.098;2023-02-15T14:31:47;10.73;;;9.43;;
16892;SDS011;8563;52.242;9.098;2023-02-15T14:34:22;10.20;;;8.73;;
16892;SDS011;8563;52.242;9.098;2023-02-15T14:36:56;9.80;;;8.77;;
16892;SDS011;8563;52.242;9.098;2023-02-15T14:39:31;11.83;;;8.93;;
16892;SDS011;8563;52.242;9.098;2023-02-15T14:42:29;11.30;;;9.10;;
16892;SDS011;8563;52.242;9.098;2023-02-15T14:45:04;11.03;;;9.30;;
16892;SDS011;8563;52.242;9.098;2023-02-15T14:47:39;10.67;;;9.30;;
16892;SDS011;8563;52.242;9.098;2023-02-15T14:56:18;10.77;;;8.50;;
16892;SDS011;8563;52.242;9.098;2023-02-15T14:58:55;10.17;;;8.53;;
16892;SDS011;8563;52.242;9.098;2023-02-15T15:01:29;10.43;;;9.10;;
16892;SDS011;8563;52.242;9.098;2023-02-15T15:04:03;10.40;;;9.23;;
16892;SDS011;8563;52.242;9.098;2023-02-15T15:06:39;10.23;;;9.10;;
16892;SDS011;8563;52.242;9.098;2023-02-15T15:09:14;11.00;;;9.27;;
16892;SDS011;8563;52.242;9.098;2023-02-15T15:11:52;10.57;;;9.00;;
16892;SDS011;8563;52.242;9.098;2023-02-15T15:14:38;11.27;;;8.93;;
16892;SDS011;8563;52.242;9.098;2023-02-15T15:17:11;10.93;;;8.77;;
16892;SDS011;8563;52.242;9.098;2023-02-15T15:22:43;10.50;;;9.00;;
16892;SDS011;8563;52.242;9.098;2023-02-15T15:28:08;9.73;;;8.57;;
16892;SDS011;8563;52.242;9.098;2023-02-15T15:39:15;10.47;;;8.77;;
16892;SDS011;8563;52.242;9.098;2023-02-15T15:41:53;10.63;;;9.20;;
16892;SDS011;8563;52.242;9.098;2023-02-15T15:47:21;11.47;;;8.83;;
16892;SDS011;8563;52.242;9.098;2023-02-15T15:49:57;10.60;;;8.90;;
16892;SDS011;8563;52.242;9.098;2023-02-15T15:52:30;11.13;;;9.07;;
16892;SDS011;8563;52.242;9.098;2023-02-15T15:55:14;11.40;;;8.87;;
16892;SDS011;8563;52.242;9.098;2023-02-15T15:57:47;11.57;;;9.57;;
16892;SDS011;8563;52.242;9.098;2023-02-15T16:00:26;9.93;;;8.90;;
16892;SDS011;8563;52.242;9.098;2023-02-15T16:03:02;10.97;;;9.73;;
16892;SDS011;8563;52.242;9.098;2023-02-15T16:05:35;10.57;;;8.60;;
16892;SDS011;8563;52.242;9.098;2023-02-15T16:08:08;11.97;;;9.10;;
16892;SDS011;8563;52.242;9.098;2023-02-15T16:10:40;10.37;;;9.27;;
16892;SDS011;8563;52.242;9.098;2023-02-15T16:13:13;11.47;;;9.63;;
16892;SDS011;8563;52.242;9.098;2023-02-15T16:15:46;11.60;;;9.87;;
16892;SDS011;8563;52.242;9.098;2023-02-15T16:18:24;12.40;;;9.50;;
16892;SDS011;8563;52.242;9.098;2023-02-15T16:20:58;10.30;;;8.73;;
16892;SDS011;8563;52.242;9.098;2023-02-15T16:23:38;10.67;;;9.37;;